sensor_id;sensor_type;location;lat;lon;timestamp;P1;durP1;ratioP1;P2;durP2;ratioP2
9409;SDS011;4744;52.576;13.568;2024-01-10T00:00:42;26.43;;;15.57;;
9409;SDS011;4744;52.576;13.568;2024-01-10T00:03:09;28.10;;;17.23;;
9409;SDS011;4744;52.576;13.568;2024-01-10T00:05:36;27.37;;;16.80;;
9409;SDS011;4744;52.576;13.568;2024-01-10T00:08:03;28.03;;;17.13;;
9409;SDS011;4744;52.576;13.568;2024-01-10T00:10:31;28.33;;;16.53;;
9409;SDS011;4744;52.576;13.568;2024-01-10T00:12:58;27.70;;;16.13;;
9409;SDS011;4744;52.576;13.568;2024-01-10T00:15:26;26.80;;;16.50;;
9409;SDS011;4744;52.576;13.568;2024-01-10T00:17:53;24.23;;;15.47;;
9409;SDS011;4744;52.576;13.568;2024-01-10T00:20:20;27.97;;;16.43;;
9409;SDS011;4744;52.576;13.568;2024-01-10T00:22:46;26.37;;;16.83;;
9409;SDS011;4744;52.576;13.568;2024-01-10T00:25:13;29.07;;;16.87;;
9409;SDS011;4744;52.576;13.568;2024-01-10T00:27:40;25.93;;;15.30;;
9409;SDS011;4744;52.576;13.568;2024-01-10T00:30:07;27.87;;;16.57;;
9409;SDS011;4744;52.576;13.568;2024-01-10T00:32:36;26.17;;;16.60;;
9409;SDS011;4744;52.576;13.568;2024-01-10T00:35:03;25.63;;;16.67;;
9409;SDS011;4744;52.576;13.568;2024-01-10T00:37:30;30.33;;;17.07;;
9409;SDS011;4744;52.576;13.568;2024-01-10T00:39:57;28.07;;;16.97;;
9409;SDS011;4744;52.576;13.568;2024-01-10T00:42:24;28.77;;;18.30;;
9409;SDS011;4744;52.576;13.568;2024-01-10T00:44:50;25.50;;;16.40;;
9409;SDS011;4744;52.576;13.568;2024-01-10T00:47:17;28.00;;;17.80;;
9409;SDS011;4744;52.576;13.568;2024-01-10T00:49:45;30.70;;;17.50;;
9409;SDS011;4744;52.576;13.568;2024-01-10T00:52:12;25.73;;;17.00;;
9409;SDS011;4744;52.576;13.568;2024-01-10T00:54:39;27.43;;;16.73;;
9409;SDS011;4744;52.576;13.568;2024-01-10T00:57:06;29.77;;;17.57;;
9409;SDS011;4744;52.576;13.568;2024-01-10T00:59:33;29.10;;;17.63;;
9409;SDS011;4744;52.576;13.568;2024-01-10T01:02:00;25.93;;;17.07;;
9409;SDS011;4744;52.576;13.568;2024-01-10T01:04:27;30.20;;;17.40;;
9409;SDS011;4744;52.576;13.568;2024-01-10T01:06:55;28.43;;;17.57;;
9409;SDS011;4744;52.576;13.568;2024-01-10T01:09:22;27.63;;;17.07;;
9409;SDS011;4744;52.576;13.568;2024-01-10T01:11:50;29.27;;;17.33;;
9409;SDS011;4744;52.576;13.568;2024-01-10T01:14:17;29.53;;;18.53;;
9409;SDS011;4744;52.576;13.568;2024-01-10T01:16:44;26.60;;;16.80;;
9409;SDS011;4744;52.576;13.568;2024-01-10T01:19:10;27.60;;;16.83;;
9409;SDS011;4744;52.576;13.568;2024-01-10T01:21:37;29.17;;;17.33;;
9409;SDS011;4744;52.576;13.568;2024-01-10T01:24:06;26.80;;;16.47;;
9409;SDS011;4744;52.576;13.568;2024-01-10T01:26:33;26.00;;;16.40;;
9409;SDS011;4744;52.576;13.568;2024-01-10T01:28:59;25.37;;;16.57;;
9409;SDS011;4744;52.576;13.568;2024-01-10T01:31:26;28.27;;;16.77;;
9409;SDS011;4744;52.576;13.568;2024-01-10T01:33:53;27.33;;;16.43;;
9409;SDS011;4744;52.576;13.568;2024-01-10T01:36:20;26.23;;;17.03;;
9409;SDS011;4744;52.576;13.568;2024-01-10T01:38:47;30.50;;;18.07;;
9409;SDS011;4744;52.576;13.568;2024-01-10T01:41:15;30.47;;;17.67;;
9409;SDS011;4744;52.576;13.568;2024-01-10T01:43:43;29.53;;;18.13;;
9409;SDS011;4744;52.576;13.568;2024-01-10T01:46:11;28.37;;;17.50;;
9409;SDS011;4744;52.576;13.568;2024-01-10T01:48:38;28.60;;;17.27;;
9409;SDS011;4744;52.576;13.568;2024-01-10T01:51:07;27.97;;;17.73;;
9409;SDS011;4744;52.576;13.568;2024-01-10T01:53:35;30.60;;;16.90;;
9409;SDS011;4744;52.576;13.568;2024-01-10T01:56:05;25.73;;;15.70;;
9409;SDS011;4744;52.576;13.568;2024-01-10T01:58:34;26.10;;;15.80;;
9409;SDS011;4744;52.576;13.568;2024-01-10T02:01:02;27.67;;;17.80;;
9409;SDS011;4744;52.576;13.568;2024-01-10T02:03:30;29.37;;;17.53;;
9409;SDS011;4744;52.576;13.568;2024-01-10T02:05:58;32.23;;;18.37;;
9409;SDS011;4744;52.576;13.568;2024-01-10T02:08:25;29.30;;;18.10;;
9409;SDS011;4744;52.576;13.568;2024-01-10T02:10:52;27.63;;;17.27;;
9409;SDS011;4744;52.576;13.568;2024-01-10T02:13:19;28.40;;;17.77;;
9409;SDS011;4744;52.576;13.568;2024-01-10T02:15:47;32.00;;;18.30;;
9409;SDS011;4744;52.576;13.568;2024-01-10T02:18:14;28.90;;;17.87;;
9409;SDS011;4744;52.576;13.568;2024-01-10T02:20:43;29.90;;;17.97;;
9409;SDS011;4744;52.576;13.568;2024-01-10T02:23:11;30.30;;;18.17;;
9409;SDS011;4744;52.576;13.568;2024-01-10T02:25:39;32.00;;;18.63;;
9409;SDS011;4744;52.576;13.568;2024-01-10T02:28:07;30.33;;;19.57;;
9409;SDS011;4744;52.576;13.568;2024-01-10T02:30:34;32.87;;;19.90;;
9409;SDS011;4744;52.576;13.568;2024-01-10T02:33:01;31.57;;;18.60;;
9409;SDS011;4744;52.576;13.568;2024-01-10T02:35:28;32.93;;;19.40;;
9409;SDS011;4744;52.576;13.568;2024-01-10T02:37:58;32.17;;;19.17;;
9409;SDS011;4744;52.576;13.568;2024-01-10T02:40:25;34.20;;;20.27;;
9409;SDS011;4744;52.576;13.568;2024-01-10T02:42:53;32.43;;;19.87;;
9409;SDS011;4744;52.576;13.568;2024-01-10T02:45:20;35.93;;;20.17;;
9409;SDS011;4744;52.576;13.568;2024-01-10T02:47:47;35.37;;;21.60;;
9409;SDS011;4744;52.576;13.568;2024-01-10T02:50:14;33.20;;;19.47;;
9409;SDS011;4744;52.576;13.568;2024-01-10T02:52:41;38.43;;;21.53;;
9409;SDS011;4744;52.576;13.568;2024-01-10T02:55:08;33.57;;;20.67;;
9409;SDS011;4744;52.576;13.568;2024-01-10T02:57:35;34.10;;;19.17;;
9409;SDS011;4744;52.576;13.568;2024-01-10T03:00:04;34.23;;;20.83;;
9409;SDS011;4744;52.576;13.568;2024-01-10T03:02:32;31.50;;;19.83;;
9409;SDS011;4744;52.576;13.568;2024-01-10T03:04:59;32.33;;;19.97;;
9409;SDS011;4744;52.576;13.568;2024-01-10T03:07:26;32.03;;;19.87;;
9409;SDS011;4744;52.576;13.568;2024-01-10T03:09:53;32.00;;;18.53;;
9409;SDS011;4744;52.576;13.568;2024-01-10T03:12:20;33.87;;;20.70;;
9409;SDS011;4744;52.576;13.568;2024-01-10T03:14:47;32.63;;;19.37;;
9409;SDS011;4744;52.576;13.568;2024-01-10T03:17:15;32.57;;;18.80;;
9409;SDS011;4744;52.576;13.568;2024-01-10T03:19:42;33.30;;;18.63;;
9409;SDS011;4744;52.576;13.568;2024-01-10T03:22:09;31.03;;;18.97;;
9409;SDS011;4744;52.576;13.568;2024-01-10T03:24:36;30.93;;;19.03;;
9409;SDS011;4744;52.576;13.568;2024-01-10T03:27:03;33.37;;;21.00;;
9409;SDS011;4744;52.576;13.568;2024-01-10T03:29:30;32.87;;;19.90;;
9409;SDS011;4744;52.576;13.568;2024-01-10T03:31:57;36.37;;;21.47;;
9409;SDS011;4744;52.576;13.568;2024-01-10T03:34:26;36.70;;;19.97;;
9409;SDS011;4744;52.576;13.568;2024-01-10T03:36:53;33.17;;;19.67;;
9409;SDS011;4744;52.576;13.568;2024-01-10T03:39:19;30.30;;;18.63;;
9409;SDS011;4744;52.576;13.568;2024-01-10T03:41:47;34.83;;;19.97;;
9409;SDS011;4744;52.576;13.568;2024-01-10T03:44:14;36.07;;;20.73;;
9409;SDS011;4744;52.576;13.568;2024-01-10T03:46:41;33.87;;;19.90;;
9409;SDS011;4744;52.576;13.568;2024-01-10T03:49:08;37.13;;;21.13;;
9409;SDS011;4744;52.576;13.568;2024-01-10T03:51:36;32.00;;;19.70;;
9409;SDS011;4744;52.576;13.568;2024-01-10T03:54:05;30.83;;;19.93;;
9409;SDS011;4744;52.576;13.568;2024-01-10T03:56:32;29.27;;;18.47;;
9409;SDS011;4744;52.576;13.568;2024-01-10T03:58:59;31.90;;;20.33;;
9409;SDS011;4744;52.576;13.568;2024-01-10T04:01:26;32.67;;;19.73;;
9409;SDS011;4744;52.576;13.568;2024-01-10T04:03:53;33.27;;;20.03;;
9409;SDS011;4744;52.576;13.568;2024-01-10T04:06:20;32.67;;;19.23;;
9409;SDS011;4744;52.576;13.568;2024-01-10T04:08:48;32.13;;;19.33;;
9409;SDS011;4744;52.576;13.568;2024-01-10T04:11:15;31.13;;;18.40;;
9409;SDS011;4744;52.576;13.568;2024-01-10T04:13:42;29.43;;;18.40;;
9409;SDS011;4744;52.576;13.568;2024-01-10T04:16:09;28.40;;;17.90;;
9409;SDS011;4744;52.576;13.568;2024-01-10T04:18:36;30.83;;;18.00;;
9409;SDS011;4744;52.576;13.568;2024-01-10T04:21:03;33.87;;;19.60;;
9409;SDS011;4744;52.576;13.568;2024-01-10T04:23:30;28.83;;;17.83;;
9409;SDS011;4744;52.576;13.568;2024-01-10T04:26:00;33.07;;;19.57;;
9409;SDS011;4744;52.576;13.568;2024-01-10T04:28:27;34.33;;;20.17;;
9409;SDS011;4744;52.576;13.568;2024-01-10T04:30:54;33.23;;;18.73;;
9409;SDS011;4744;52.576;13.568;2024-01-10T04:33:21;34.10;;;20.10;;
9409;SDS011;4744;52.576;13.568;2024-01-10T04:35:48;32.97;;;19.20;;
9409;SDS011;4744;52.576;13.568;2024-01-10T04:38:15;32.83;;;19.47;;
9409;SDS011;4744;52.576;13.568;2024-01-10T04:40:42;29.77;;;18.73;;
9409;SDS011;4744;52.576;13.568;2024-01-10T04:43:10;31.63;;;18.63;;
9409;SDS011;4744;52.576;13.568;2024-01-10T04:45:37;31.50;;;19.07;;
9409;SDS011;4744;52.576;13.568;2024-01-10T04:48:04;33.50;;;20.27;;
9409;SDS011;4744;52.576;13.568;2024-01-10T04:50:31;31.87;;;20.23;;
9409;SDS011;4744;52.576;13.568;2024-01-10T04:52:58;30.10;;;19.20;;
9409;SDS011;4744;52.576;13.568;2024-01-10T04:55:25;34.37;;;20.83;;
9409;SDS011;4744;52.576;13.568;2024-01-10T04:57:52;30.80;;;18.90;;
9409;SDS011;4744;52.576;13.568;2024-01-10T05:00:21;35.37;;;20.60;;
9409;SDS011;4744;52.576;13.568;2024-01-10T05:02:47;35.73;;;20.50;;
9409;SDS011;4744;52.576;13.568;2024-01-10T05:05:14;33.47;;;20.33;;
9409;SDS011;4744;52.576;13.568;2024-01-10T05:07:43;34.67;;;20.40;;
9409;SDS011;4744;52.576;13.568;2024-01-10T05:10:10;32.70;;;19.80;;
9409;SDS011;4744;52.576;13.568;2024-01-10T05:12:37;33.17;;;19.43;;
9409;SDS011;4744;52.576;13.568;2024-01-10T05:15:04;31.83;;;19.50;;
9409;SDS011;4744;52.576;13.568;2024-01-10T05:17:33;31.27;;;20.07;;
9409;SDS011;4744;52.576;13.568;2024-01-10T05:20:00;29.13;;;18.70;;
9409;SDS011;4744;52.576;13.568;2024-01-10T05:22:27;32.70;;;18.97;;
9409;SDS011;4744;52.576;13.568;2024-01-10T05:24:55;29.93;;;18.27;;
9409;SDS011;4744;52.576;13.568;2024-01-10T05:27:22;29.93;;;17.50;;
9409;SDS011;4744;52.576;13.568;2024-01-10T05:29:49;28.83;;;19.20;;
9409;SDS011;4744;52.576;13.568;2024-01-10T05:32:16;30.27;;;19.27;;
9409;SDS011;4744;52.576;13.568;2024-01-10T05:34:44;34.93;;;18.83;;
9409;SDS011;4744;52.576;13.568;2024-01-10T05:37:11;34.53;;;19.53;;
9409;SDS011;4744;52.576;13.568;2024-01-10T05:39:38;29.33;;;18.47;;
9409;SDS011;4744;52.576;13.568;2024-01-10T05:42:05;34.93;;;20.50;;
9409;SDS011;4744;52.576;13.568;2024-01-10T05:44:32;30.63;;;19.27;;
9409;SDS011;4744;52.576;13.568;2024-01-10T05:46:59;34.63;;;20.60;;
9409;SDS011;4744;52.576;13.568;2024-01-10T05:49:26;32.57;;;19.80;;
9409;SDS011;4744;52.576;13.568;2024-01-10T05:51:54;32.87;;;19.83;;
9409;SDS011;4744;52.576;13.568;2024-01-10T05:54:21;36.67;;;19.87;;
9409;SDS011;4744;52.576;13.568;2024-01-10T05:56:48;29.30;;;18.53;;
9409;SDS011;4744;52.576;13.568;2024-01-10T05:59:15;30.70;;;19.23;;
9409;SDS011;4744;52.576;13.568;2024-01-10T06:01:42;33.63;;;18.63;;
9409;SDS011;4744;52.576;13.568;2024-01-10T06:04:09;37.53;;;20.97;;
9409;SDS011;4744;52.576;13.568;2024-01-10T06:06:35;33.23;;;20.77;;
9409;SDS011;4744;52.576;13.568;2024-01-10T06:09:04;30.23;;;18.93;;
9409;SDS011;4744;52.576;13.568;2024-01-10T06:11:31;28.07;;;17.87;;
9409;SDS011;4744;52.576;13.568;2024-01-10T06:13:57;32.57;;;18.90;;
9409;SDS011;4744;52.576;13.568;2024-01-10T06:16:24;29.83;;;17.97;;
9409;SDS011;4744;52.576;13.568;2024-01-10T06:18:51;31.53;;;18.13;;
9409;SDS011;4744;52.576;13.568;2024-01-10T06:21:18;30.67;;;19.30;;
9409;SDS011;4744;52.576;13.568;2024-01-10T06:23:45;30.13;;;18.33;;
9409;SDS011;4744;52.576;13.568;2024-01-10T06:26:13;30.17;;;19.47;;
9409;SDS011;4744;52.576;13.568;2024-01-10T06:28:41;31.83;;;18.63;;
9409;SDS011;4744;52.576;13.568;2024-01-10T06:31:08;31.47;;;19.43;;
9409;SDS011;4744;52.576;13.568;2024-01-10T06:33:35;32.30;;;20.10;;
9409;SDS011;4744;52.576;13.568;2024-01-10T06:36:02;36.00;;;19.80;;
9409;SDS011;4744;52.576;13.568;2024-01-10T06:38:29;31.97;;;19.27;;
9409;SDS011;4744;52.576;13.568;2024-01-10T06:40:56;32.90;;;18.77;;
9409;SDS011;4744;52.576;13.568;2024-01-10T06:43:24;27.30;;;18.17;;
9409;SDS011;4744;52.576;13.568;2024-01-10T06:45:51;27.30;;;17.80;;
9409;SDS011;4744;52.576;13.568;2024-01-10T06:48:18;30.80;;;18.47;;
9409;SDS011;4744;52.576;13.568;2024-01-10T06:50:45;28.97;;;17.80;;
9409;SDS011;4744;52.576;13.568;2024-01-10T06:53:11;31.93;;;18.73;;
9409;SDS011;4744;52.576;13.568;2024-01-10T06:55:39;29.43;;;18.13;;
9409;SDS011;4744;52.576;13.568;2024-01-10T06:58:05;29.70;;;18.00;;
9409;SDS011;4744;52.576;13.568;2024-01-10T07:00:34;29.43;;;18.67;;
9409;SDS011;4744;52.576;13.568;2024-01-10T07:03:03;34.83;;;20.20;;
9409;SDS011;4744;52.576;13.568;2024-01-10T07:05:30;29.83;;;19.50;;
9409;SDS011;4744;52.576;13.568;2024-01-10T07:07:57;35.17;;;19.60;;
9409;SDS011;4744;52.576;13.568;2024-01-10T07:10:24;27.07;;;18.13;;
9409;SDS011;4744;52.576;13.568;2024-01-10T07:12:52;30.13;;;18.90;;
9409;SDS011;4744;52.576;13.568;2024-01-10T07:15:20;32.67;;;19.80;;
9409;SDS011;4744;52.576;13.568;2024-01-10T07:17:48;32.20;;;20.40;;
9409;SDS011;4744;52.576;13.568;2024-01-10T07:20:15;34.53;;;19.97;;
9409;SDS011;4744;52.576;13.568;2024-01-10T07:22:42;33.97;;;18.70;;
9409;SDS011;4744;52.576;13.568;2024-01-10T07:25:10;31.70;;;19.03;;
9409;SDS011;4744;52.576;13.568;2024-01-10T07:27:39;31.83;;;19.07;;
9409;SDS011;4744;52.576;13.568;2024-01-10T07:30:06;32.60;;;19.73;;
9409;SDS011;4744;52.576;13.568;2024-01-10T07:32:38;35.60;;;19.60;;
9409;SDS011;4744;52.576;13.568;2024-01-10T07:35:07;31.93;;;18.03;;
9409;SDS011;4744;52.576;13.568;2024-01-10T07:37:35;32.57;;;19.73;;
9409;SDS011;4744;52.576;13.568;2024-01-10T07:40:03;33.70;;;19.40;;
9409;SDS011;4744;52.576;13.568;2024-01-10T07:42:31;28.47;;;18.73;;
9409;SDS011;4744;52.576;13.568;2024-01-10T07:44:58;30.50;;;19.07;;
9409;SDS011;4744;52.576;13.568;2024-01-10T07:47:25;35.40;;;19.43;;
9409;SDS011;4744;52.576;13.568;2024-01-10T07:49:52;31.67;;;19.07;;
9409;SDS011;4744;52.576;13.568;2024-01-10T07:52:20;33.63;;;20.07;;
9409;SDS011;4744;52.576;13.568;2024-01-10T07:54:47;28.93;;;18.60;;
9409;SDS011;4744;52.576;13.568;2024-01-10T07:57:14;32.23;;;18.83;;
9409;SDS011;4744;52.576;13.568;2024-01-10T07:59:43;32.77;;;18.37;;
9409;SDS011;4744;52.576;13.568;2024-01-10T08:02:10;27.43;;;17.57;;
9409;SDS011;4744;52.576;13.568;2024-01-10T08:04:37;31.90;;;18.60;;
9409;SDS011;4744;52.576;13.568;2024-01-10T08:07:04;27.13;;;18.40;;
9409;SDS011;4744;52.576;13.568;2024-01-10T08:09:33;32.37;;;18.97;;
9409;SDS011;4744;52.576;13.568;2024-01-10T08:12:00;30.47;;;18.40;;
9409;SDS011;4744;52.576;13.568;2024-01-10T08:14:26;31.83;;;18.27;;
9409;SDS011;4744;52.576;13.568;2024-01-10T08:16:53;30.60;;;19.27;;
9409;SDS011;4744;52.576;13.568;2024-01-10T08:19:23;30.67;;;19.80;;
9409;SDS011;4744;52.576;13.568;2024-01-10T08:21:51;32.03;;;18.93;;
9409;SDS011;4744;52.576;13.568;2024-01-10T08:24:18;31.23;;;18.80;;
9409;SDS011;4744;52.576;13.568;2024-01-10T08:26:46;28.37;;;18.13;;
9409;SDS011;4744;52.576;13.568;2024-01-10T08:29:14;29.83;;;18.37;;
9409;SDS011;4744;52.576;13.568;2024-01-10T08:31:42;35.50;;;22.07;;
9409;SDS011;4744;52.576;13.568;2024-01-10T08:34:09;39.33;;;24.73;;
9409;SDS011;4744;52.576;13.568;2024-01-10T08:36:36;39.00;;;24.27;;
9409;SDS011;4744;52.576;13.568;2024-01-10T08:39:03;35.57;;;22.40;;
9409;SDS011;4744;52.576;13.568;2024-01-10T08:41:30;40.13;;;24.20;;
9409;SDS011;4744;52.576;13.568;2024-01-10T08:43:58;37.63;;;24.43;;
9409;SDS011;4744;52.576;13.568;2024-01-10T08:46:26;38.67;;;25.43;;
9409;SDS011;4744;52.576;13.568;2024-01-10T08:48:52;40.53;;;26.00;;
9409;SDS011;4744;52.576;13.568;2024-01-10T08:51:19;44.10;;;26.05;;
9409;SDS011;4744;52.576;13.568;2024-01-10T08:53:46;40.50;;;25.43;;
9409;SDS011;4744;52.576;13.568;2024-01-10T08:56:14;38.28;;;24.40;;
9409;SDS011;4744;52.576;13.568;2024-01-10T08:58:42;43.57;;;25.13;;
9409;SDS011;4744;52.576;13.568;2024-01-10T09:01:10;39.03;;;25.40;;
9409;SDS011;4744;52.576;13.568;2024-01-10T09:03:37;40.20;;;25.37;;
9409;SDS011;4744;52.576;13.568;2024-01-10T09:06:04;36.63;;;24.57;;
9409;SDS011;4744;52.576;13.568;2024-01-10T09:08:32;39.90;;;23.63;;
9409;SDS011;4744;52.576;13.568;2024-01-10T09:10:59;34.17;;;23.00;;
9409;SDS011;4744;52.576;13.568;2024-01-10T09:13:27;39.03;;;23.88;;
9409;SDS011;4744;52.576;13.568;2024-01-10T09:15:53;40.70;;;25.70;;
9409;SDS011;4744;52.576;13.568;2024-01-10T09:18:22;38.85;;;25.13;;
9409;SDS011;4744;52.576;13.568;2024-01-10T09:20:49;35.65;;;23.60;;
9409;SDS011;4744;52.576;13.568;2024-01-10T09:23:15;35.92;;;22.40;;
9409;SDS011;4744;52.576;13.568;2024-01-10T09:25:43;36.33;;;23.45;;
9409;SDS011;4744;52.576;13.568;2024-01-10T09:28:10;36.75;;;23.75;;
9409;SDS011;4744;52.576;13.568;2024-01-10T09:30:38;36.03;;;22.60;;
9409;SDS011;4744;52.576;13.568;2024-01-10T09:33:05;36.20;;;24.65;;
9409;SDS011;4744;52.576;13.568;2024-01-10T09:35:33;38.70;;;24.23;;
9409;SDS011;4744;52.576;13.568;2024-01-10T09:38:00;38.28;;;24.00;;
9409;SDS011;4744;52.576;13.568;2024-01-10T09:40:27;34.55;;;23.67;;
9409;SDS011;4744;52.576;13.568;2024-01-10T09:42:54;38.20;;;23.73;;
9409;SDS011;4744;52.576;13.568;2024-01-10T09:45:21;37.20;;;23.58;;
9409;SDS011;4744;52.576;13.568;2024-01-10T09:47:52;33.63;;;22.80;;
9409;SDS011;4744;52.576;13.568;2024-01-10T09:50:21;35.63;;;23.52;;
9409;SDS011;4744;52.576;13.568;2024-01-10T09:52:56;33.28;;;22.17;;
9409;SDS011;4744;52.576;13.568;2024-01-10T09:55:33;35.83;;;23.45;;
9409;SDS011;4744;52.576;13.568;2024-01-10T09:58:02;35.80;;;23.65;;
9409;SDS011;4744;52.576;13.568;2024-01-10T10:00:30;34.75;;;22.17;;
9409;SDS011;4744;52.576;13.568;2024-01-10T10:03:00;35.05;;;23.27;;
9409;SDS011;4744;52.576;13.568;2024-01-10T10:05:30;32.33;;;20.80;;
9409;SDS011;4744;52.576;13.568;2024-01-10T10:08:00;33.28;;;21.27;;
9409;SDS011;4744;52.576;13.568;2024-01-10T10:10:28;33.60;;;21.93;;
9409;SDS011;4744;52.576;13.568;2024-01-10T10:12:54;38.90;;;25.83;;
9409;SDS011;4744;52.576;13.568;2024-01-10T10:15:22;34.67;;;22.10;;
9409;SDS011;4744;52.576;13.568;2024-01-10T10:17:51;31.63;;;21.20;;
9409;SDS011;4744;52.576;13.568;2024-01-10T10:20:20;32.40;;;19.10;;
9409;SDS011;4744;52.576;13.568;2024-01-10T10:25:43;33.10;;;19.17;;
9409;SDS011;4744;52.576;13.568;2024-01-10T10:28:11;31.73;;;20.00;;
9409;SDS011;4744;52.576;13.568;2024-01-10T10:30:38;29.20;;;19.70;;
9409;SDS011;4744;52.576;13.568;2024-01-10T10:33:05;32.17;;;19.97;;
9409;SDS011;4744;52.576;13.568;2024-01-10T10:35:33;33.73;;;21.33;;
9409;SDS011;4744;52.576;13.568;2024-01-10T10:38:00;32.67;;;19.63;;
9409;SDS011;4744;52.576;13.568;2024-01-10T10:40:28;32.07;;;19.07;;
9409;SDS011;4744;52.576;13.568;2024-01-10T10:42:56;31.30;;;19.70;;
9409;SDS011;4744;52.576;13.568;2024-01-10T10:45:23;34.60;;;21.07;;
9409;SDS011;4744;52.576;13.568;2024-01-10T10:47:53;30.17;;;18.53;;
9409;SDS011;4744;52.576;13.568;2024-01-10T10:50:24;31.43;;;19.63;;
9409;SDS011;4744;52.576;13.568;2024-01-10T10:52:54;32.30;;;19.63;;
9409;SDS011;4744;52.576;13.568;2024-01-10T10:55:21;42.87;;;27.40;;
9409;SDS011;4744;52.576;13.568;2024-01-10T10:57:50;33.33;;;21.00;;
9409;SDS011;4744;52.576;13.568;2024-01-10T11:00:19;28.13;;;17.27;;
9409;SDS011;4744;52.576;13.568;2024-01-10T11:02:47;25.63;;;17.23;;
9409;SDS011;4744;52.576;13.568;2024-01-10T11:05:14;26.37;;;16.70;;
9409;SDS011;4744;52.576;13.568;2024-01-10T11:07:43;28.90;;;16.93;;
9409;SDS011;4744;52.576;13.568;2024-01-10T11:10:11;28.30;;;16.77;;
9409;SDS011;4744;52.576;13.568;2024-01-10T11:12:47;26.27;;;17.00;;
9409;SDS011;4744;52.576;13.568;2024-01-10T11:15:34;27.07;;;17.43;;
9409;SDS011;4744;52.576;13.568;2024-01-10T11:18:24;26.43;;;18.00;;
9409;SDS011;4744;52.576;13.568;2024-01-10T11:21:07;26.73;;;16.47;;
9409;SDS011;4744;52.576;13.568;2024-01-10T11:23:45;22.97;;;15.27;;
9409;SDS011;4744;52.576;13.568;2024-01-10T11:26:15;28.37;;;16.60;;
9409;SDS011;4744;52.576;13.568;2024-01-10T11:28:44;21.87;;;14.37;;
9409;SDS011;4744;52.576;13.568;2024-01-10T11:31:12;23.50;;;15.07;;
9409;SDS011;4744;52.576;13.568;2024-01-10T11:33:41;25.93;;;15.57;;
9409;SDS011;4744;52.576;13.568;2024-01-10T11:36:11;24.37;;;15.60;;
9409;SDS011;4744;52.576;13.568;2024-01-10T11:38:43;25.10;;;15.63;;
9409;SDS011;4744;52.576;13.568;2024-01-10T11:41:20;22.92;;;14.57;;
9409;SDS011;4744;52.576;13.568;2024-01-10T11:46:55;25.43;;;15.00;;
9409;SDS011;4744;52.576;13.568;2024-01-10T11:49:23;22.50;;;15.03;;
9409;SDS011;4744;52.576;13.568;2024-01-10T11:51:52;20.10;;;14.13;;
9409;SDS011;4744;52.576;13.568;2024-01-10T11:54:40;22.50;;;15.03;;
9409;SDS011;4744;52.576;13.568;2024-01-10T11:57:11;21.90;;;13.40;;
9409;SDS011;4744;52.576;13.568;2024-01-10T11:59:42;21.45;;;13.85;;
9409;SDS011;4744;52.576;13.568;2024-01-10T12:02:10;22.02;;;13.95;;
9409;SDS011;4744;52.576;13.568;2024-01-10T12:04:38;24.37;;;14.77;;
9409;SDS011;4744;52.576;13.568;2024-01-10T12:07:06;22.20;;;14.73;;
9409;SDS011;4744;52.576;13.568;2024-01-10T12:09:34;22.80;;;14.17;;
9409;SDS011;4744;52.576;13.568;2024-01-10T12:12:01;19.53;;;13.60;;
9409;SDS011;4744;52.576;13.568;2024-01-10T12:14:28;22.83;;;13.63;;
9409;SDS011;4744;52.576;13.568;2024-01-10T12:16:57;23.93;;;15.13;;
9409;SDS011;4744;52.576;13.568;2024-01-10T12:19:25;20.90;;;13.33;;
9409;SDS011;4744;52.576;13.568;2024-01-10T12:21:52;24.30;;;14.90;;
9409;SDS011;4744;52.576;13.568;2024-01-10T12:24:19;23.53;;;15.50;;
9409;SDS011;4744;52.576;13.568;2024-01-10T12:26:46;22.47;;;14.33;;
9409;SDS011;4744;52.576;13.568;2024-01-10T12:29:17;24.60;;;14.43;;
9409;SDS011;4744;52.576;13.568;2024-01-10T12:31:45;24.00;;;14.80;;
9409;SDS011;4744;52.576;13.568;2024-01-10T12:34:13;22.10;;;14.13;;
9409;SDS011;4744;52.576;13.568;2024-01-10T12:36:40;21.50;;;14.00;;
9409;SDS011;4744;52.576;13.568;2024-01-10T12:39:07;20.97;;;12.60;;
9409;SDS011;4744;52.576;13.568;2024-01-10T12:41:35;19.03;;;12.67;;
9409;SDS011;4744;52.576;13.568;2024-01-10T12:44:03;16.90;;;11.77;;
9409;SDS011;4744;52.576;13.568;2024-01-10T12:46:31;16.67;;;11.23;;
9409;SDS011;4744;52.576;13.568;2024-01-10T12:48:59;17.33;;;11.57;;
9409;SDS011;4744;52.576;13.568;2024-01-10T12:51:28;15.13;;;10.47;;
9409;SDS011;4744;52.576;13.568;2024-01-10T12:53:56;16.87;;;10.87;;
9409;SDS011;4744;52.576;13.568;2024-01-10T12:56:25;17.17;;;9.97;;
9409;SDS011;4744;52.576;13.568;2024-01-10T12:58:52;17.93;;;11.50;;
9409;SDS011;4744;52.576;13.568;2024-01-10T13:01:20;17.63;;;11.87;;
9409;SDS011;4744;52.576;13.568;2024-01-10T13:03:47;18.50;;;11.73;;
9409;SDS011;4744;52.576;13.568;2024-01-10T13:06:15;17.43;;;11.57;;
9409;SDS011;4744;52.576;13.568;2024-01-10T13:08:43;21.33;;;12.73;;
9409;SDS011;4744;52.576;13.568;2024-01-10T13:11:11;20.50;;;12.97;;
9409;SDS011;4744;52.576;13.568;2024-01-10T13:13:39;19.60;;;13.30;;
9409;SDS011;4744;52.576;13.568;2024-01-10T13:16:06;18.93;;;12.13;;
9409;SDS011;4744;52.576;13.568;2024-01-10T13:18:35;18.97;;;12.53;;
9409;SDS011;4744;52.576;13.568;2024-01-10T13:21:02;17.27;;;12.53;;
9409;SDS011;4744;52.576;13.568;2024-01-10T13:23:30;21.73;;;13.17;;
9409;SDS011;4744;52.576;13.568;2024-01-10T13:25:59;21.40;;;14.77;;
9409;SDS011;4744;52.576;13.568;2024-01-10T13:28:26;19.43;;;12.93;;
9409;SDS011;4744;52.576;13.568;2024-01-10T13:30:54;20.23;;;12.97;;
9409;SDS011;4744;52.576;13.568;2024-01-10T13:33:22;20.30;;;13.43;;
9409;SDS011;4744;52.576;13.568;2024-01-10T13:35:50;19.03;;;12.47;;
9409;SDS011;4744;52.576;13.568;2024-01-10T13:38:17;20.43;;;12.70;;
9409;SDS011;4744;52.576;13.568;2024-01-10T13:40:44;21.27;;;13.40;;
9409;SDS011;4744;52.576;13.568;2024-01-10T13:43:12;19.87;;;12.57;;
9409;SDS011;4744;52.576;13.568;2024-01-10T13:45:40;19.60;;;13.03;;
9409;SDS011;4744;52.576;13.568;2024-01-10T13:48:06;19.90;;;12.80;;
9409;SDS011;4744;52.576;13.568;2024-01-10T13:50:35;20.93;;;13.50;;
9409;SDS011;4744;52.576;13.568;2024-01-10T13:53:02;19.57;;;13.47;;
9409;SDS011;4744;52.576;13.568;2024-01-10T13:55:29;18.23;;;12.27;;
9409;SDS011;4744;52.576;13.568;2024-01-10T13:57:57;18.00;;;12.20;;
9409;SDS011;4744;52.576;13.568;2024-01-10T14:00:25;20.77;;;13.37;;
9409;SDS011;4744;52.576;13.568;2024-01-10T14:02:52;19.90;;;12.97;;
9409;SDS011;4744;52.576;13.568;2024-01-10T14:05:24;21.03;;;13.37;;
9409;SDS011;4744;52.576;13.568;2024-01-10T14:07:52;20.27;;;12.87;;
9409;SDS011;4744;52.576;13.568;2024-01-10T14:10:19;19.97;;;13.23;;
9409;SDS011;4744;52.576;13.568;2024-01-10T14:12:46;21.50;;;13.37;;
9409;SDS011;4744;52.576;13.568;2024-01-10T14:15:14;19.83;;;13.17;;
9409;SDS011;4744;52.576;13.568;2024-01-10T14:17:42;19.77;;;13.43;;
9409;SDS011;4744;52.576;13.568;2024-01-10T14:20:09;18.40;;;12.60;;
9409;SDS011;4744;52.576;13.568;2024-01-10T14:22:38;20.37;;;13.27;;
9409;SDS011;4744;52.576;13.568;2024-01-10T14:25:06;18.60;;;12.63;;
9409;SDS011;4744;52.576;13.568;2024-01-10T14:27:34;21.27;;;13.63;;
9409;SDS011;4744;52.576;13.568;2024-01-10T14:30:03;22.00;;;14.73;;
9409;SDS011;4744;52.576;13.568;2024-01-10T14:32:33;23.60;;;13.90;;
9409;SDS011;4744;52.576;13.568;2024-01-10T14:35:01;19.37;;;13.70;;
9409;SDS011;4744;52.576;13.568;2024-01-10T14:37:29;24.57;;;15.37;;
9409;SDS011;4744;52.576;13.568;2024-01-10T14:39:56;22.53;;;14.60;;
9409;SDS011;4744;52.576;13.568;2024-01-10T14:42:24;21.03;;;13.93;;